Terminal Aerodrome Forecast
Issued by NWS Twin Cities, MN

Home | Current Version | Previous Version | Graphics & Text | Print | Product List | Glossary On
Versions: 1 2 3 4 5 6 7 8 9 10 11 12 13 14 15 16 17 18 19 20 21 22 23 24 25
000
FTUS43 KMPX 250520
TAFMSP
TAF
KMSP 250520Z 2506/2612 17007KT P6SM BKN060
     FM251400 VRB03KT P6SM SCT025 BKN035
     FM251700 VRB03KT P6SM BKN025
     FM252000 06006KT 3SM -SHRA BR OVC015
     FM260000 09005KT 2SM -RA BR OVC008
     FM260400 03006KT 3SM -RA BR OVC008=

USA.gov is the U.S. government's official web portal to all federal, state and local government web resources and services.